Celina, Tennessee
Current Conditions -  °F | °C
As of 10:15 AM on Sunday 25 Jan 2015 (Local Time) from KSRB Reporting Station
Clear Clear  
Wind Chill: 46°   Ceiling: Unl
Heat Index: 48°   Visibility: 10mi
Dew Point: 36°   Wind: 6mph
Humidity: 62%   Direction: 190°S
Pressure: 29.77"   Gusts: NA
Location:  36.55°N, 85.51°W
Report Text: KSRB 251615Z AUTO 19005KT 10SM CLR 09/02 A2977 RMK
Loading
Personal Weather Stations






























Interactive Weather Map New forecast layout! Learn more

10-Day Weather Forecast

Advertisements
Track Severe Weather on mobile